Big Stone Pride — WDB4762 — position and weather

sailwx.info

Track history (hours):
 
Tides and Currents Weather Stations Pressure Air Temp Water Temp Dewpoint Dewpoint Depression Visibility Wind Speed Wind Dir Waves Ship Positions

Big Stone Pride

Owner: DELAWARE BAY LAUNCH SERVICE INC, MILFORD, DE. More information available from US FCC via Universal Licensing System and Coast Guard Vessel Documentation Center.

Last reported at 2017-Sep-22 02:00 UTC. Time now 2017-Sep-22 20:36 UTC.
Position N 39°50' W 075°23'.

Length 19 m; draft 1 m.

Type: Passenger vessel. MMSI: 366902060.

Date/timePositionNaut miles runAvg speedWind from/ knotsBaromVisibWave heightAir tempDewpointWater temp
2017-Sep-22 02:00N 39°50' W 075°23'2 3.2
2017-Sep-22 01:30N 39°48' W 075°24'2 3.2
2017-Sep-22 01:00N 39°50' W 075°23'0 0.0
2017-Sep-22 00:31N 39°50' W 075°23'2 4.7
2017-Sep-22 00:01N 39°48' W 075°25'0 0.1
2017-Sep-21 23:31N 39°48' W 075°25'2 4.7
2017-Sep-21 23:00N 39°50' W 075°23'3 5.1
2017-Sep-21 22:31N 39°48' W 075°26'3 5.0
2017-Sep-21 22:00N 39°50' W 075°23'0 0.0
2017-Sep-21 21:31N 39°50' W 075°23'0 0.0
2017-Sep-21 21:00N 39°50' W 075°23'0 0.0
2017-Sep-21 20:31N 39°50' W 075°23'0 0.0
2017-Sep-21 20:01N 39°50' W 075°23'4 7.9
2017-Sep-21 19:31N 39°47' W 075°27'4 7.6
2017-Sep-21 19:00N 39°49' W 075°23'0 0.4
2017-Sep-21 18:31N 39°49' W 075°23'4 7.9
2017-Sep-21 18:01N 39°47' W 075°27'4 8.6
2017-Sep-21 17:30N 39°50' W 075°23'0 0.0
2017-Sep-21 17:00N 39°50' W 075°23'0 0.0
2017-Sep-21 16:30N 39°50' W 075°23'0 0.0
2017-Sep-21 16:00N 39°50' W 075°23'4 8.6
2017-Sep-21 15:30N 39°47' W 075°27'4 7.2
2017-Sep-21 15:00N 39°49' W 075°23'1 1.5
2017-Sep-21 14:30N 39°50' W 075°23'4 8.7
2017-Sep-21 14:00N 39°47' W 075°28'4 8.8
2017-Sep-21 13:30N 39°50' W 075°23'0 0.0
2017-Sep-21 13:00N 39°50' W 075°23'0 0.0
2017-Sep-21 12:30N 39°50' W 075°23'0 0.0
2017-Sep-21 12:00N 39°50' W 075°23'0 0.0
2017-Sep-21 11:30N 39°50' W 075°23'0 0.4
2017-Sep-21 11:01N 39°49' W 075°23'1 2.4
2017-Sep-21 10:30N 39°49' W 075°24'1 2.7
2017-Sep-21 10:00N 39°50' W 075°23'0 0.1
2017-Sep-21 09:30N 39°50' W 075°23'0 0.0
2017-Sep-21 09:01N 39°50' W 075°23'4 8.8
2017-Sep-21 08:31N 39°47' W 075°28'1 2.7
2017-Sep-21 08:00N 39°48' W 075°26'3 6.0
2017-Sep-21 07:31N 39°50' W 075°23'0 0.0
2017-Sep-21 07:00N 39°50' W 075°23'0 0.0
2017-Sep-21 06:31N 39°50' W 075°23'0 0.0
2017-Sep-21 06:00N 39°50' W 075°23'0 0.0
2017-Sep-21 05:30N 39°50' W 075°23'0 0.5
2017-Sep-21 05:01N 39°49' W 075°23'0 0.6
2017-Sep-21 04:31N 39°49' W 075°23'1 1.0
2017-Sep-21 04:01N 39°50' W 075°23'0 0.0
2017-Sep-21 03:30N 39°50' W 075°23'4 7.5
2017-Sep-21 03:01N 39°47' W 075°27'3 5.2
2017-Sep-21 02:31N 39°49' W 075°24'1 2.4
2017-Sep-21 02:00N 39°50' W 075°23'0 0.0
2017-Sep-21 01:30N 39°50' W 075°23'1 2.8
2017-Sep-21 01:01N 39°49' W 075°24'1 1.2
2017-Sep-21 00:30N 39°49' W 075°24'1 1.6
2017-Sep-21 00:01N 39°50' W 075°23'0 0.0
2017-Sep-20 23:31N 39°50' W 075°23'0 0.0
2017-Sep-20 23:01N 39°50' W 075°23'1 2.0
2017-Sep-20 22:31N 39°49' W 075°24'1 1.5
2017-Sep-20 22:01N 39°49' W 075°23'0 0.5
2017-Sep-20 21:30N 39°50' W 075°23'0 0.0
2017-Sep-20 21:00N 39°50' W 075°23'0 0.0
2017-Sep-20 20:30N 39°50' W 075°23'4 8.7
2017-Sep-20 20:01N 39°47' W 075°28'4 8.7
2017-Sep-20 19:30N 39°50' W 075°23'2 4.5
2017-Sep-20 19:01N 39°48' W 075°25'2 4.5
2017-Sep-20 18:31N 39°50' W 075°23'3 5.8
2017-Sep-20 18:00N 39°48' W 075°26'1 1.6
2017-Sep-20 17:30N 39°48' W 075°25'1 1.0
2017-Sep-20 17:01N 39°48' W 075°24'2 3.5
2017-Sep-20 16:30N 39°50' W 075°23'2 4.5
2017-Sep-20 16:01N 39°48' W 075°25'2 4.5
2017-Sep-20 15:30N 39°50' W 075°23'3 5.6
2017-Sep-20 15:01N 39°48' W 075°26'2 2.3
2017-Sep-20 14:01N 39°49' W 075°23'0 1.0
2017-Sep-20 13:30N 39°50' W 075°23'0 0.0
2017-Sep-20 13:00N 39°50' W 075°23'0 0.0
2017-Sep-20 12:30N 39°50' W 075°23'3 5.3
2017-Sep-20 12:00N 39°48' W 075°26'2 4.8
2017-Sep-20 11:31N 39°49' W 075°23'0 0.5
2017-Sep-20 11:01N 39°50' W 075°23'3 6.1
2017-Sep-20 10:31N 39°48' W 075°26'3 6.2
2017-Sep-20 10:00N 39°50' W 075°23'0 0.1
2017-Sep-20 09:30N 39°50' W 075°23'2 4.6
2017-Sep-20 09:01N 39°48' W 075°25'2 4.6
2017-Sep-20 08:30N 39°50' W 075°23'0 0.0
2017-Sep-20 08:00N 39°50' W 075°23'0 0.0
2017-Sep-20 07:30N 39°50' W 075°23'0 0.0
2017-Sep-20 07:00N 39°50' W 075°23'0 0.0
2017-Sep-20 06:31N 39°50' W 075°23'0 0.0
2017-Sep-20 06:00N 39°50' W 075°23'0 0.0
2017-Sep-20 05:31N 39°50' W 075°23'0 0.0
2017-Sep-20 05:01N 39°50' W 075°23'0 0.0
2017-Sep-20 04:30N 39°50' W 075°23'0 0.0
2017-Sep-20 04:01N 39°50' W 075°23'0 0.0
2017-Sep-20 03:31N 39°50' W 075°23'0 0.0
2017-Sep-20 03:01N 39°50' W 075°23'0 0.0
2017-Sep-20 02:31N 39°50' W 075°23'0 0.0
2017-Sep-20 02:00N 39°50' W 075°23'0 0.0
2017-Sep-20 01:30N 39°50' W 075°23'0 0.0
2017-Sep-20 01:00N 39°50' W 075°23'4 8.6
2017-Sep-20 00:30N 39°47' W 075°28'0 0.0
2017-Sep-20 00:00N 39°47' W 075°28'2 4.5
2017-Sep-19 23:30N 39°48' W 075°25'2 4.4
2017-Sep-19 23:00N 39°50' W 075°23'1 1.9
2017-Sep-19 22:30N 39°49' W 075°24'1 1.8
2017-Sep-19 22:01N 39°50' W 075°23'0 0.1
2017-Sep-19 21:30N 39°50' W 075°23'0 0.0
2017-Sep-19 21:00N 39°50' W 075°23'0 0.0
2017-Sep-19 20:30N 39°50' W 075°23'3 5.2
2017-Sep-19 20:01N 39°48' W 075°26'2 3.3
2017-Sep-19 19:30N 39°47' W 075°27'2 4.1
2017-Sep-19 19:01N 39°48' W 075°25'2 4.6
2017-Sep-19 18:31N 39°50' W 075°23'2 3.7
2017-Sep-19 18:01N 39°48' W 075°25'2 3.7
2017-Sep-19 17:30N 39°50' W 075°23'0 0.0
2017-Sep-19 17:00N 39°50' W 075°23'0 0.0
2017-Sep-19 16:31N 39°50' W 075°23'0 0.0
2017-Sep-19 16:01N 39°50' W 075°23'0 0.0
2017-Sep-19 15:31N 39°50' W 075°23'0 0.0
2017-Sep-19 15:01N 39°50' W 075°23'0 0.0
2017-Sep-19 14:31N 39°50' W 075°23'4 8.7
2017-Sep-19 14:00N 39°47' W 075°28'0 0.1
2017-Sep-19 13:31N 39°47' W 075°27'4 8.6
2017-Sep-19 13:00N 39°50' W 075°23'0 0.0
2017-Sep-19 12:31N 39°50' W 075°23'0 0.1
2017-Sep-19 12:01N 39°50' W 075°23'2 4.6
2017-Sep-19 11:31N 39°48' W 075°25'2 4.7
2017-Sep-19 11:00N 39°50' W 075°23'2 4.3
2017-Sep-19 10:30N 39°48' W 075°25'2 4.3
2017-Sep-19 10:01N 39°50' W 075°23'0 0.1
2017-Sep-19 09:30N 39°50' W 075°23'0 0.0
2017-Sep-19 09:01N 39°50' W 075°23'0 0.0
2017-Sep-19 08:30N 39°50' W 075°23'2 3.8
2017-Sep-19 08:01N 39°48' W 075°25'2 3.5
2017-Sep-19 07:31N 39°49' W 075°23'0 0.3
2017-Sep-19 07:00N 39°50' W 075°23'0 0.0
2017-Sep-19 06:30N 39°50' W 075°23'0 0.0
2017-Sep-19 06:00N 39°50' W 075°23'0 0.0
2017-Sep-19 05:30N 39°50' W 075°23'0 0.0
2017-Sep-19 05:00N 39°50' W 075°23'0 0.0
2017-Sep-19 04:30N 39°50' W 075°23'0 0.0
2017-Sep-19 04:00N 39°50' W 075°23'0 0.0
2017-Sep-19 03:30N 39°50' W 075°23'0 0.0
2017-Sep-19 03:00N 39°50' W 075°23'0 0.0
2017-Sep-19 02:30N 39°50' W 075°23'0 0.0
2017-Sep-19 02:00N 39°50' W 075°23'0 0.0
2017-Sep-19 01:30N 39°50' W 075°23'0 0.0
2017-Sep-19 01:00N 39°50' W 075°23'0 0.0
2017-Sep-19 00:30N 39°50' W 075°23'0 0.0
2017-Sep-19 00:00N 39°50' W 075°23'4 7.8
2017-Sep-18 23:30N 39°47' W 075°27'4 7.8
2017-Sep-18 23:00N 39°50' W 075°23'2 3.4
2017-Sep-18 22:30N 39°49' W 075°25'2 3.2
2017-Sep-18 22:01N 39°50' W 075°23'0 0.2
2017-Sep-18 21:30N 39°50' W 075°23'0 0.0
2017-Sep-18 21:00N 39°50' W 075°23'0 0.0
2017-Sep-18 20:30N 39°50' W 075°23'0 0.0
2017-Sep-18 20:00N 39°50' W 075°23'2 3.1
2017-Sep-18 19:31N 39°48' W 075°24'3 5.3
2017-Sep-18 19:01N 39°47' W 075°27'4 8.2
2017-Sep-18 18:30N 39°50' W 075°23'1 1.9
2017-Sep-18 18:00N 39°49' W 075°24'3 6.8
2017-Sep-18 17:30N 39°47' W 075°28'4 8.4
2017-Sep-18 17:01N 39°49' W 075°23'2 3.9
2017-Sep-18 16:30N 39°48' W 075°25'0 0.4
2017-Sep-18 16:00N 39°48' W 075°25'0 0.6
2017-Sep-18 15:30N 39°48' W 075°25'0 0.7
2017-Sep-18 15:00N 39°48' W 075°25'2 4.8
2017-Sep-18 14:30N 39°50' W 075°23'0 0.0
2017-Sep-18 14:00N 39°50' W 075°23'2 3.2
2017-Sep-18 13:30N 39°48' W 075°24'2 3.2
2017-Sep-18 13:00N 39°50' W 075°23'0 0.0
2017-Sep-18 12:31N 39°50' W 075°23'0 0.0
2017-Sep-18 12:00N 39°50' W 075°23'0 0.0
2017-Sep-18 11:31N 39°50' W 075°23'0 0.0
2017-Sep-18 11:00N 39°50' W 075°23'3 5.3
2017-Sep-18 10:30N 39°48' W 075°26'3 5.2
2017-Sep-18 10:01N 39°50' W 075°23'0 0.2
2017-Sep-18 09:30N 39°50' W 075°23'1 2.4
2017-Sep-18 09:01N 39°49' W 075°24'1 2.4
2017-Sep-18 08:30N 39°50' W 075°23'0 0.0
2017-Sep-18 08:01N 39°50' W 075°23'0 0.0
2017-Sep-18 07:30N 39°50' W 075°23'0 0.0
2017-Sep-18 07:01N 39°50' W 075°23'0 0.0
2017-Sep-18 06:30N 39°50' W 075°23'1 2.1
2017-Sep-18 06:01N 39°49' W 075°24'1 2.1
2017-Sep-18 05:31N 39°50' W 075°23'0 0.0
2017-Sep-18 05:00N 39°50' W 075°23'0 0.0
2017-Sep-18 04:30N 39°50' W 075°23'0 0.0
2017-Sep-18 04:00N 39°50' W 075°23'0 0.0
2017-Sep-18 03:31N 39°50' W 075°23'0 0.0
2017-Sep-18 03:00N 39°50' W 075°23'0 0.0
2017-Sep-18 02:30N 39°50' W 075°23'2 4.7
2017-Sep-18 02:00N 39°48' W 075°25'0 0.0
2017-Sep-18 01:30N 39°48' W 075°25'0 1.0
2017-Sep-18 01:01N 39°48' W 075°26'3 4.8
2017-Sep-18 00:29N 39°50' W 075°23'0 0.0
2017-Sep-18 00:01N 39°50' W 075°23'0 0.0
2017-Sep-17 23:30N 39°50' W 075°23'0 0.0
2017-Sep-17 23:01N 39°50' W 075°23'1 2.0
2017-Sep-17 22:30N 39°49' W 075°24'1 1.1
2017-Sep-17 22:00N 39°49' W 075°23'0 1.0
2017-Sep-17 21:30N 39°50' W 075°23'0 0.0
2017-Sep-17 21:00N 39°50' W 075°23'0 0.0
2017-Sep-17 20:31N 39°50' W 075°23'0 0.1
2017-Sep-17 20:01N 39°50' W 075°23'0 0.1
2017-Sep-17 19:30N 39°50' W 075°23'0 0.1
2017-Sep-17 19:01N 39°50' W 075°23'0 0.1
2017-Sep-17 18:30N 39°50' W 075°23'3 5.1
2017-Sep-17 18:00N 39°48' W 075°26'3 5.1
2017-Sep-17 17:31N 39°50' W 075°23'0 0.1
2017-Sep-17 17:00N 39°50' W 075°23'0 0.0
2017-Sep-17 16:30N 39°50' W 075°23'0 0.0
2017-Sep-17 16:00N 39°50' W 075°23'0 0.0
2017-Sep-17 15:30N 39°50' W 075°23'0 0.1
2017-Sep-17 15:01N 39°50' W 075°23'0 0.0
2017-Sep-17 14:31N 39°50' W 075°23'0 0.0
2017-Sep-17 14:00N 39°50' W 075°23'0 0.0
2017-Sep-17 13:30N 39°50' W 075°23'0 0.0
2017-Sep-17 13:01N 39°50' W 075°23'0 0.0
2017-Sep-17 12:31N 39°50' W 075°23'0 0.0
2017-Sep-17 12:01N 39°50' W 075°23'0 0.8
2017-Sep-17 11:31N 39°49' W 075°23'0 0.8
2017-Sep-17 11:00N 39°50' W 075°23'3 5.1
2017-Sep-17 10:31N 39°48' W 075°26'2 4.8
2017-Sep-17 10:00N 39°49' W 075°23'0 0.3
2017-Sep-17 09:30N 39°50' W 075°23'2 3.9
2017-Sep-17 09:01N 39°48' W 075°25'2 3.9
2017-Sep-17 08:30N 39°50' W 075°23'0 0.0
2017-Sep-17 08:00N 39°50' W 075°23'0 0.0
2017-Sep-17 07:31N 39°50' W 075°23'0 0.0
2017-Sep-17 07:00N 39°50' W 075°23'0 0.0
2017-Sep-17 06:30N 39°50' W 075°23'0 0.0
2017-Sep-17 06:00N 39°50' W 075°23'0 0.0
2017-Sep-17 05:31N 39°50' W 075°23'0 0.0
2017-Sep-17 05:01N 39°50' W 075°23'0 0.0
2017-Sep-17 04:31N 39°50' W 075°23'0 0.0
2017-Sep-17 04:00N 39°50' W 075°23'0 0.0
2017-Sep-17 03:30N 39°50' W 075°23'0 0.0
2017-Sep-17 03:01N 39°50' W 075°23'0 0.0
2017-Sep-17 02:30N 39°50' W 075°23'0 0.0
2017-Sep-17 02:00N 39°50' W 075°23'0 0.0
2017-Sep-17 01:30N 39°50' W 075°23'0 0.0
2017-Sep-17 01:00N 39°50' W 075°23'0 0.0
2017-Sep-17 00:30N 39°50' W 075°23'0 0.0
2017-Sep-17 00:00N 39°50' W 075°23'0 0.0
2017-Sep-16 23:30N 39°50' W 075°23'1 3.0
2017-Sep-16 23:01N 39°48' W 075°24'1 2.1
2017-Sep-16 22:31N 39°48' W 075°25'2 4.9
2017-Sep-16 22:01N 39°50' W 075°23'0 0.0
2017-Sep-16 21:30N 39°50' W 075°23'0 0.0
2017-Sep-16 21:01N 39°50' W 075°23'0 0.0
2017-Sep-16 20:31N 39°50' W 075°23'0 0.0
2017-Sep-16 20:01N 39°50' W 075°23'1 2.5
2017-Sep-16 19:31N 39°49' W 075°24'0 0.9
2017-Sep-16 19:00N 39°49' W 075°24'1 1.7
2017-Sep-16 18:30N 39°50' W 075°23'2 4.9
2017-Sep-16 18:01N 39°48' W 075°25'2 3.9
2017-Sep-16 17:30N 39°47' W 075°27'4 8.6
2017-Sep-16 17:00N 39°50' W 075°23'0 0.0
2017-Sep-16 16:31N 39°50' W 075°23'0 0.0
2017-Sep-16 16:01N 39°50' W 075°23'4 8.6
2017-Sep-16 15:31N 39°47' W 075°27'4 8.6
2017-Sep-16 15:00N 39°50' W 075°23'0 0.0
2017-Sep-16 14:30N 39°50' W 075°23'0 0.0
2017-Sep-16 14:00N 39°50' W 075°23'0 0.0
2017-Sep-16 13:30N 39°50' W 075°23'0 0.0
2017-Sep-16 13:00N 39°50' W 075°23'0 0.0
2017-Sep-16 12:30N 39°50' W 075°23'0 0.0
2017-Sep-16 12:00N 39°50' W 075°23'0 0.0
2017-Sep-16 11:30N 39°50' W 075°23'0 0.7
2017-Sep-16 11:01N 39°49' W 075°23'1 1.7
2017-Sep-16 10:31N 39°49' W 075°24'1 2.2
2017-Sep-16 10:00N 39°49' W 075°23'0 0.3
2017-Sep-16 09:31N 39°50' W 075°23'2 3.6
2017-Sep-16 09:01N 39°48' W 075°25'2 3.6
2017-Sep-16 08:31N 39°50' W 075°23'0 0.0
2017-Sep-16 08:00N 39°50' W 075°23'0 0.0
2017-Sep-16 07:30N 39°50' W 075°23'0 0.0
2017-Sep-16 07:00N 39°50' W 075°23'0 0.0
2017-Sep-16 06:30N 39°50' W 075°23'0 0.0
2017-Sep-16 06:00N 39°50' W 075°23'0 0.0
2017-Sep-16 05:31N 39°50' W 075°23'0 0.0
2017-Sep-16 05:01N 39°50' W 075°23'0 0.0
2017-Sep-16 04:30N 39°50' W 075°23'0 0.0
2017-Sep-16 04:01N 39°50' W 075°23'2 4.9
2017-Sep-16 03:31N 39°48' W 075°25'0 0.1
2017-Sep-16 03:00N 39°48' W 075°25'2 4.9
2017-Sep-16 02:30N 39°50' W 075°23'3 6.5
2017-Sep-16 02:00N 39°48' W 075°26'1 1.5
2017-Sep-16 01:31N 39°48' W 075°26'2 3.5
2017-Sep-16 01:00N 39°47' W 075°27'4 8.6
2017-Sep-16 00:30N 39°50' W 075°23'0 0.0
2017-Sep-16 00:01N 39°50' W 075°23'0 0.0
2017-Sep-15 23:31N 39°50' W 075°23'3 6.4
2017-Sep-15 23:01N 39°48' W 075°26'1 1.8
2017-Sep-15 22:30N 39°47' W 075°27'4 8.2
2017-Sep-15 22:00N 39°50' W 075°23'0 0.0
2017-Sep-15 21:30N 39°50' W 075°23'0 0.0
2017-Sep-15 21:01N 39°50' W 075°23'0 0.0
2017-Sep-15 20:30N 39°50' W 075°23'0 0.0
2017-Sep-15 20:00N 39°50' W 075°23'0 0.0
2017-Sep-15 19:31N 39°50' W 075°23'4 8.5
2017-Sep-15 19:01N 39°47' W 075°27'4 8.5
2017-Sep-15 18:30N 39°50' W 075°23'4 8.6
2017-Sep-15 18:01N 39°47' W 075°27'4 8.5
2017-Sep-15 17:30N 39°50' W 075°23'3 5.0
2017-Sep-15 17:00N 39°48' W 075°25'2 3.2
2017-Sep-15 16:31N 39°47' W 075°27'4 8.0
2017-Sep-15 16:00N 39°50' W 075°23'0 0.0
2017-Sep-15 15:30N 39°50' W 075°23'3 5.1
2017-Sep-15 15:00N 39°48' W 075°25'0 0.1
2017-Sep-15 14:31N 39°48' W 075°25'3 5.0
2017-Sep-15 14:01N 39°50' W 075°23'4 8.5
2017-Sep-15 13:31N 39°47' W 075°27'0 0.0
2017-Sep-15 13:00N 39°47' W 075°27'4 8.6
2017-Sep-15 12:31N 39°50' W 075°23'3 6.9
2017-Sep-15 12:01N 39°47' W 075°26'0 0.5
2017-Sep-15 11:31N 39°48' W 075°26'3 6.5
2017-Sep-15 11:01N 39°50' W 075°23'2 3.5
2017-Sep-15 10:30N 39°48' W 075°25'2 3.4
2017-Sep-15 10:01N 39°49' W 075°23'0 0.3
2017-Sep-15 09:30N 39°50' W 075°23'0 0.0
2017-Sep-15 09:00N 39°50' W 075°23'0 0.0
2017-Sep-15 08:30N 39°50' W 075°23'0 0.0
2017-Sep-15 08:01N 39°50' W 075°23'0 0.0
2017-Sep-15 07:31N 39°50' W 075°23'0 0.0
2017-Sep-15 07:00N 39°50' W 075°23'0 0.0
2017-Sep-15 06:31N 39°50' W 075°23'0 0.0
2017-Sep-15 06:01N 39°50' W 075°23'0 0.0
2017-Sep-15 05:31N 39°50' W 075°23'0 0.0
2017-Sep-15 05:00N 39°50' W 075°23'0 0.0
2017-Sep-15 04:30N 39°50' W 075°23'0 0.0
2017-Sep-15 04:00N 39°50' W 075°23'0 0.0
2017-Sep-15 03:30N 39°50' W 075°23'0 0.0
2017-Sep-15 03:01N 39°50' W 075°23'0 0.0
2017-Sep-15 02:30N 39°50' W 075°23'0 0.0
2017-Sep-15 02:01N 39°50' W 075°23'0 0.0
2017-Sep-15 01:31N 39°50' W 075°23'0 0.0
2017-Sep-15 01:00N 39°50' W 075°23'0 0.0
2017-Sep-15 00:31N 39°50' W 075°23'0 0.0
2017-Sep-15 00:00N 39°50' W 075°23'0 0.0
2017-Sep-14 23:31N 39°50' W 075°23'0 0.0
2017-Sep-14 23:01N 39°50' W 075°23'4 8.3
2017-Sep-14 22:31N 39°47' W 075°27'4 8.3
2017-Sep-14 22:00N 39°50' W 075°23'0 0.0
2017-Sep-14 21:31N 39°50' W 075°23'0 0.0
2017-Sep-14 21:01N 39°50' W 075°23'2 4.9
2017-Sep-14 20:31N 39°48' W 075°25'2 4.9
2017-Sep-14 20:01N 39°50' W 075°23'0 0.1
2017-Sep-14 19:31N 39°50' W 075°23'0 0.7
2017-Sep-14 19:01N 39°49' W 075°23'3 6.4
2017-Sep-14 18:31N 39°47' W 075°26'1 2.9
2017-Sep-14 18:01N 39°48' W 075°25'0 0.0
2017-Sep-14 17:30N 39°48' W 075°25'2 4.5
2017-Sep-14 17:01N 39°47' W 075°27'0 0.4
2017-Sep-14 16:31N 39°47' W 075°28'3 6.5
2017-Sep-14 16:01N 39°49' W 075°24'1 2.0
2017-Sep-14 15:30N 39°50' W 075°23'1 2.8
2017-Sep-14 15:01N 39°49' W 075°24'2 3.7
2017-Sep-14 14:30N 39°48' W 075°26'3 5.9
2017-Sep-14 14:01N 39°49' W 075°23'3 5.4
2017-Sep-14 13:31N 39°48' W 075°26'2 3.4
2017-Sep-14 13:00N 39°49' W 075°24'3 5.8
2017-Sep-14 12:31N 39°47' W 075°27'0 0.1
2017-Sep-14 12:01N 39°47' W 075°27'0 0.2
2017-Sep-14 11:31N 39°47' W 075°27'4 8.3
2017-Sep-14 11:00N 39°50' W 075°23'2 4.7
2017-Sep-14 10:31N 39°48' W 075°25'2 4.8
2017-Sep-14 10:01N 39°50' W 075°23'0 0.0
2017-Sep-14 09:31N 39°50' W 075°23'2 4.8
2017-Sep-14 09:00N 39°48' W 075°25'0 0.4
2017-Sep-14 08:30N 39°48' W 075°25'0 0.7
2017-Sep-14 08:01N 39°48' W 075°25'2 4.8
2017-Sep-14 07:31N 39°50' W 075°23'0 0.0
2017-Sep-14 07:01N 39°50' W 075°23'1 1.9
2017-Sep-14 06:31N 39°49' W 075°24'2 4.8
2017-Sep-14 06:00N 39°48' W 075°26'3 6.6
2017-Sep-14 05:30N 39°50' W 075°23'0 0.0
2017-Sep-14 05:01N 39°50' W 075°23'3 5.3
2017-Sep-14 04:31N 39°48' W 075°26'2 3.3
2017-Sep-14 04:01N 39°47' W 075°27'4 8.5
2017-Sep-14 03:30N 39°50' W 075°23'3 5.2
2017-Sep-14 03:00N 39°48' W 075°25'0 0.7
2017-Sep-14 02:31N 39°48' W 075°25'2 4.5
2017-Sep-14 02:00N 39°50' W 075°23'1 1.7
2017-Sep-14 01:31N 39°49' W 075°24'3 6.8
2017-Sep-14 01:01N 39°47' W 075°27'2 4.4
2017-Sep-14 00:30N 39°48' W 075°25'2 3.9
2017-Sep-14 00:01N 39°50' W 075°23'0 0.0
2017-Sep-13 23:30N 39°50' W 075°23'0 0.2
2017-Sep-13 23:01N 39°50' W 075°23'3 5.6
2017-Sep-13 22:31N 39°48' W 075°26'3 5.6
2017-Sep-13 22:00N 39°50' W 075°23'0 0.1
2017-Sep-13 21:30N 39°50' W 075°23'0 0.0
2017-Sep-13 21:01N 39°50' W 075°23'3 5.8
2017-Sep-13 20:31N 39°48' W 075°26'1 2.6
2017-Sep-13 20:00N 39°47' W 075°27'4 8.3
2017-Sep-13 19:31N 39°50' W 075°23'0 0.0
2017-Sep-13 19:00N 39°50' W 075°23'3 6.5
2017-Sep-13 18:31N 39°48' W 075°26'1 1.5
2017-Sep-13 18:00N 39°48' W 075°25'1 1.5
2017-Sep-13 17:31N 39°48' W 075°25'2 3.7
2017-Sep-13 17:00N 39°50' W 075°23'0 0.0
2017-Sep-13 16:30N 39°50' W 075°23'0 0.0
2017-Sep-13 16:00N 39°50' W 075°23'0 0.0
2017-Sep-13 15:30N 39°50' W 075°23'2 5.0
2017-Sep-13 15:00N 39°48' W 075°25'1 1.2
2017-Sep-13 14:31N 39°48' W 075°25'1 1.3
2017-Sep-13 14:00N 39°49' W 075°24'1 2.5
2017-Sep-13 13:30N 39°50' W 075°23'0 0.0
2017-Sep-13 13:00N 39°50' W 075°23'2 4.1
2017-Sep-13 12:30N 39°48' W 075°25'2 4.1
2017-Sep-13 12:01N 39°50' W 075°23'4 7.8
2017-Sep-13 11:30N 39°47' W 075°27'4 7.8
2017-Sep-13 11:01N 39°50' W 075°23'3 5.4
2017-Sep-13 10:31N 39°48' W 075°26'3 5.4
2017-Sep-13 10:01N 39°50' W 075°23'0 0.1
2017-Sep-13 09:30N 39°50' W 075°23'0 0.0
2017-Sep-13 09:01N 39°50' W 075°23'0 0.0
2017-Sep-13 08:31N 39°50' W 075°23'0 0.0
2017-Sep-13 08:00N 39°50' W 075°23'0 0.0
2017-Sep-13 07:31N 39°50' W 075°23'0 0.0
2017-Sep-13 07:00N 39°50' W 075°23'0 0.0
2017-Sep-13 06:31N 39°50' W 075°23'3 5.0
2017-Sep-13 06:00N 39°48' W 075°25'0 0.8
2017-Sep-13 05:31N 39°48' W 075°25'2 4.2
2017-Sep-13 05:00N 39°50' W 075°23'0 0.0
2017-Sep-13 04:30N 39°50' W 075°23'0 0.0
2017-Sep-13 04:00N 39°50' W 075°23'0 0.0
2017-Sep-13 03:30N 39°50' W 075°23'0 0.0
2017-Sep-13 03:00N 39°50' W 075°23'0 0.0
2017-Sep-13 02:31N 39°50' W 075°23'2 3.2
2017-Sep-13 02:00N 39°49' W 075°25'2 3.2
2017-Sep-13 01:30N 39°50' W 075°23'0 0.0
2017-Sep-13 01:01N 39°50' W 075°23'0 0.0
2017-Sep-13 00:31N 39°50' W 075°23'0 0.0
2017-Sep-13 00:00N 39°50' W 075°23'0 0.0
2017-Sep-12 23:31N 39°50' W 075°23'0 0.1
2017-Sep-12 23:01N 39°50' W 075°23'4 8.3
2017-Sep-12 22:31N 39°47' W 075°27'4 8.3
2017-Sep-12 22:00N 39°50' W 075°23'0 0.0
2017-Sep-12 21:30N 39°50' W 075°23'0 0.0
2017-Sep-12 21:00N 39°50' W 075°23'0 0.0
2017-Sep-12 20:30N 39°50' W 075°23'0 0.0
2017-Sep-12 20:00N 39°50' W 075°23'3 7.0
2017-Sep-12 19:31N 39°48' W 075°27'1 2.2
2017-Sep-12 19:01N 39°48' W 075°25'0 0.2
2017-Sep-12 18:30N 39°48' W 075°25'2 3.1
2017-Sep-12 18:01N 39°47' W 075°27'2 3.3
2017-Sep-12 17:31N 39°48' W 075°25'0 0.6
2017-Sep-12 17:00N 39°48' W 075°25'2 3.4
2017-Sep-12 16:31N 39°49' W 075°23'0 0.9
2017-Sep-12 16:00N 39°50' W 075°23'0 0.0
2017-Sep-12 15:30N 39°50' W 075°23'0 0.0
2017-Sep-12 15:00N 39°50' W 075°23'3 5.2
2017-Sep-12 14:30N 39°48' W 075°25'3 5.2
2017-Sep-12 14:01N 39°50' W 075°23'0 0.0
2017-Sep-12 13:30N 39°50' W 075°23'0 0.0
2017-Sep-12 13:00N 39°50' W 075°23'0 0.0
2017-Sep-12 12:30N 39°50' W 075°23'0 0.0
2017-Sep-12 09:16N 39°50' W 075°23'0 0.0
2017-Sep-12 09:00N 39°50' W 075°23'0 0.0
2017-Sep-12 08:30N 39°50' W 075°23'0 0.0
2017-Sep-12 08:00N 39°50' W 075°23'0 0.0
2017-Sep-12 07:30N 39°50' W 075°23'0 0.0
2017-Sep-12 07:00N 39°50' W 075°23'0 0.0
2017-Sep-12 06:30N 39°50' W 075°23'0 0.0
2017-Sep-12 06:00N 39°50' W 075°23'0 0.0
2017-Sep-12 05:30N 39°50' W 075°23'0 0.0
2017-Sep-12 05:01N 39°50' W 075°23'0 0.0
2017-Sep-12 04:31N 39°50' W 075°23'0 0.0
2017-Sep-12 04:00N 39°50' W 075°23'0 0.0
2017-Sep-12 03:30N 39°50' W 075°23'0 0.0
2017-Sep-12 03:00N 39°50' W 075°23'0 0.0
2017-Sep-12 02:30N 39°50' W 075°23'0 0.0
2017-Sep-12 02:01N 39°50' W 075°23'  
Track history (hours):
 
Tides and Currents Weather Stations Pressure Air Temp Water Temp Dewpoint Dewpoint Depression Visibility Wind Speed Wind Dir Waves Ship Positions

Big Stone Pride

Owner: DELAWARE BAY LAUNCH SERVICE INC, MILFORD, DE. More information available from US FCC via Universal Licensing System and Coast Guard Vessel Documentation Center.

Last reported at 2017-Sep-22 02:00 UTC. Time now 2017-Sep-22 20:36 UTC.
Position N 39°50' W 075°23'.

Length 19 m; draft 1 m.

Type: Passenger vessel. MMSI: 366902060.

Date/timePositionNaut miles runAvg speedWind from/ knotsBaromVisibWave heightAir tempDewpointWater temp
2017-Sep-22 02:00N 39°50' W 075°23'2 3.2
2017-Sep-22 01:30N 39°48' W 075°24'2 3.2
2017-Sep-22 01:00N 39°50' W 075°23'0 0.0
2017-Sep-22 00:31N 39°50' W 075°23'2 4.7
2017-Sep-22 00:01N 39°48' W 075°25'0 0.1
2017-Sep-21 23:31N 39°48' W 075°25'2 4.7
2017-Sep-21 23:00N 39°50' W 075°23'3 5.1
2017-Sep-21 22:31N 39°48' W 075°26'3 5.0
2017-Sep-21 22:00N 39°50' W 075°23'0 0.0
2017-Sep-21 21:31N 39°50' W 075°23'0 0.0
2017-Sep-21 21:00N 39°50' W 075°23'0 0.0
2017-Sep-21 20:31N 39°50' W 075°23'0 0.0
2017-Sep-21 20:01N 39°50' W 075°23'4 7.9
2017-Sep-21 19:31N 39°47' W 075°27'4 7.6
2017-Sep-21 19:00N 39°49' W 075°23'0 0.4
2017-Sep-21 18:31N 39°49' W 075°23'4 7.9
2017-Sep-21 18:01N 39°47' W 075°27'4 8.6
2017-Sep-21 17:30N 39°50' W 075°23'0 0.0
2017-Sep-21 17:00N 39°50' W 075°23'0 0.0
2017-Sep-21 16:30N 39°50' W 075°23'0 0.0
2017-Sep-21 16:00N 39°50' W 075°23'4 8.6
2017-Sep-21 15:30N 39°47' W 075°27'4 7.2
2017-Sep-21 15:00N 39°49' W 075°23'1 1.5
2017-Sep-21 14:30N 39°50' W 075°23'4 8.7
2017-Sep-21 14:00N 39°47' W 075°28'4 8.8
2017-Sep-21 13:30N 39°50' W 075°23'0 0.0
2017-Sep-21 13:00N 39°50' W 075°23'0 0.0
2017-Sep-21 12:30N 39°50' W 075°23'0 0.0
2017-Sep-21 12:00N 39°50' W 075°23'0 0.0
2017-Sep-21 11:30N 39°50' W 075°23'0 0.4
2017-Sep-21 11:01N 39°49' W 075°23'1 2.4
2017-Sep-21 10:30N 39°49' W 075°24'1 2.7
2017-Sep-21 10:00N 39°50' W 075°23'0 0.1
2017-Sep-21 09:30N 39°50' W 075°23'0 0.0
2017-Sep-21 09:01N 39°50' W 075°23'4 8.8
2017-Sep-21 08:31N 39°47' W 075°28'1 2.7
2017-Sep-21 08:00N 39°48' W 075°26'3 6.0
2017-Sep-21 07:31N 39°50' W 075°23'0 0.0
2017-Sep-21 07:00N 39°50' W 075°23'0 0.0
2017-Sep-21 06:31N 39°50' W 075°23'0 0.0
2017-Sep-21 06:00N 39°50' W 075°23'0 0.0
2017-Sep-21 05:30N 39°50' W 075°23'0 0.5
2017-Sep-21 05:01N 39°49' W 075°23'0 0.6
2017-Sep-21 04:31N 39°49' W 075°23'1 1.0
2017-Sep-21 04:01N 39°50' W 075°23'0 0.0
2017-Sep-21 03:30N 39°50' W 075°23'4 7.5
2017-Sep-21 03:01N 39°47' W 075°27'3 5.2
2017-Sep-21 02:31N 39°49' W 075°24'1 2.4
2017-Sep-21 02:00N 39°50' W 075°23'0 0.0
2017-Sep-21 01:30N 39°50' W 075°23'1 2.8
2017-Sep-21 01:01N 39°49' W 075°24'1 1.2
2017-Sep-21 00:30N 39°49' W 075°24'1 1.6
2017-Sep-21 00:01N 39°50' W 075°23'0 0.0
2017-Sep-20 23:31N 39°50' W 075°23'0 0.0
2017-Sep-20 23:01N 39°50' W 075°23'1 2.0
2017-Sep-20 22:31N 39°49' W 075°24'1 1.5
2017-Sep-20 22:01N 39°49' W 075°23'0 0.5
2017-Sep-20 21:30N 39°50' W 075°23'0 0.0
2017-Sep-20 21:00N 39°50' W 075°23'0 0.0
2017-Sep-20 20:30N 39°50' W 075°23'4 8.7
2017-Sep-20 20:01N 39°47' W 075°28'4 8.7
2017-Sep-20 19:30N 39°50' W 075°23'2 4.5
2017-Sep-20 19:01N 39°48' W 075°25'2 4.5
2017-Sep-20 18:31N 39°50' W 075°23'3 5.8
2017-Sep-20 18:00N 39°48' W 075°26'1 1.6
2017-Sep-20 17:30N 39°48' W 075°25'1 1.0
2017-Sep-20 17:01N 39°48' W 075°24'2 3.5
2017-Sep-20 16:30N 39°50' W 075°23'2 4.5
2017-Sep-20 16:01N 39°48' W 075°25'2 4.5
2017-Sep-20 15:30N 39°50' W 075°23'3 5.6
2017-Sep-20 15:01N 39°48' W 075°26'2 2.3
2017-Sep-20 14:01N 39°49' W 075°23'0 1.0
2017-Sep-20 13:30N 39°50' W 075°23'0 0.0
2017-Sep-20 13:00N 39°50' W 075°23'0 0.0
2017-Sep-20 12:30N 39°50' W 075°23'3 5.3
2017-Sep-20 12:00N 39°48' W 075°26'2 4.8
2017-Sep-20 11:31N 39°49' W 075°23'0 0.5
2017-Sep-20 11:01N 39°50' W 075°23'3 6.1
2017-Sep-20 10:31N 39°48' W 075°26'3 6.2
2017-Sep-20 10:00N 39°50' W 075°23'0 0.1
2017-Sep-20 09:30N 39°50' W 075°23'2 4.6
2017-Sep-20 09:01N 39°48' W 075°25'2 4.6
2017-Sep-20 08:30N 39°50' W 075°23'0 0.0
2017-Sep-20 08:00N 39°50' W 075°23'0 0.0
2017-Sep-20 07:30N 39°50' W 075°23'0 0.0
2017-Sep-20 07:00N 39°50' W 075°23'0 0.0
2017-Sep-20 06:31N 39°50' W 075°23'0 0.0
2017-Sep-20 06:00N 39°50' W 075°23'0 0.0
2017-Sep-20 05:31N 39°50' W 075°23'0 0.0
2017-Sep-20 05:01N 39°50' W 075°23'0 0.0
2017-Sep-20 04:30N 39°50' W 075°23'0 0.0
2017-Sep-20 04:01N 39°50' W 075°23'0 0.0
2017-Sep-20 03:31N 39°50' W 075°23'0 0.0
2017-Sep-20 03:01N 39°50' W 075°23'0 0.0
2017-Sep-20 02:31N 39°50' W 075°23'0 0.0
2017-Sep-20 02:00N 39°50' W 075°23'0 0.0
2017-Sep-20 01:30N 39°50' W 075°23'0 0.0
2017-Sep-20 01:00N 39°50' W 075°23'4 8.6
2017-Sep-20 00:30N 39°47' W 075°28'0 0.0
2017-Sep-20 00:00N 39°47' W 075°28'2 4.5
2017-Sep-19 23:30N 39°48' W 075°25'2 4.4
2017-Sep-19 23:00N 39°50' W 075°23'1 1.9
2017-Sep-19 22:30N 39°49' W 075°24'1 1.8
2017-Sep-19 22:01N 39°50' W 075°23'0 0.1
2017-Sep-19 21:30N 39°50' W 075°23'0 0.0
2017-Sep-19 21:00N 39°50' W 075°23'0 0.0
2017-Sep-19 20:30N 39°50' W 075°23'3 5.2
2017-Sep-19 20:01N 39°48' W 075°26'2 3.3
2017-Sep-19 19:30N 39°47' W 075°27'2 4.1
2017-Sep-19 19:01N 39°48' W 075°25'2 4.6
2017-Sep-19 18:31N 39°50' W 075°23'2 3.7
2017-Sep-19 18:01N 39°48' W 075°25'2 3.7
2017-Sep-19 17:30N 39°50' W 075°23'0 0.0
2017-Sep-19 17:00N 39°50' W 075°23'0 0.0
2017-Sep-19 16:31N 39°50' W 075°23'0 0.0
2017-Sep-19 16:01N 39°50' W 075°23'0 0.0
2017-Sep-19 15:31N 39°50' W 075°23'0 0.0
2017-Sep-19 15:01N 39°50' W 075°23'0 0.0
2017-Sep-19 14:31N 39°50' W 075°23'4 8.7
2017-Sep-19 14:00N 39°47' W 075°28'0 0.1
2017-Sep-19 13:31N 39°47' W 075°27'4 8.6
2017-Sep-19 13:00N 39°50' W 075°23'0 0.0
2017-Sep-19 12:31N 39°50' W 075°23'0 0.1
2017-Sep-19 12:01N 39°50' W 075°23'2 4.6
2017-Sep-19 11:31N 39°48' W 075°25'2 4.7
2017-Sep-19 11:00N 39°50' W 075°23'2 4.3
2017-Sep-19 10:30N 39°48' W 075°25'2 4.3
2017-Sep-19 10:01N 39°50' W 075°23'0 0.1
2017-Sep-19 09:30N 39°50' W 075°23'0 0.0
2017-Sep-19 09:01N 39°50' W 075°23'0 0.0
2017-Sep-19 08:30N 39°50' W 075°23'2 3.8
2017-Sep-19 08:01N 39°48' W 075°25'2 3.5
2017-Sep-19 07:31N 39°49' W 075°23'0 0.3
2017-Sep-19 07:00N 39°50' W 075°23'0 0.0
2017-Sep-19 06:30N 39°50' W 075°23'0 0.0
2017-Sep-19 06:00N 39°50' W 075°23'0 0.0
2017-Sep-19 05:30N 39°50' W 075°23'0 0.0
2017-Sep-19 05:00N 39°50' W 075°23'0 0.0
2017-Sep-19 04:30N 39°50' W 075°23'0 0.0
2017-Sep-19 04:00N 39°50' W 075°23'0 0.0
2017-Sep-19 03:30N 39°50' W 075°23'0 0.0
2017-Sep-19 03:00N 39°50' W 075°23'0 0.0
2017-Sep-19 02:30N 39°50' W 075°23'0 0.0
2017-Sep-19 02:00N 39°50' W 075°23'0 0.0
2017-Sep-19 01:30N 39°50' W 075°23'0 0.0
2017-Sep-19 01:00N 39°50' W 075°23'0 0.0
2017-Sep-19 00:30N 39°50' W 075°23'0 0.0
2017-Sep-19 00:00N 39°50' W 075°23'4 7.8
2017-Sep-18 23:30N 39°47' W 075°27'4 7.8
2017-Sep-18 23:00N 39°50' W 075°23'2 3.4
2017-Sep-18 22:30N 39°49' W 075°25'2 3.2
2017-Sep-18 22:01N 39°50' W 075°23'0 0.2
2017-Sep-18 21:30N 39°50' W 075°23'0 0.0
2017-Sep-18 21:00N 39°50' W 075°23'0 0.0
2017-Sep-18 20:30N 39°50' W 075°23'0 0.0
2017-Sep-18 20:00N 39°50' W 075°23'2 3.1
2017-Sep-18 19:31N 39°48' W 075°24'3 5.3
2017-Sep-18 19:01N 39°47' W 075°27'4 8.2
2017-Sep-18 18:30N 39°50' W 075°23'1 1.9
2017-Sep-18 18:00N 39°49' W 075°24'3 6.8
2017-Sep-18 17:30N 39°47' W 075°28'4 8.4
2017-Sep-18 17:01N 39°49' W 075°23'2 3.9
2017-Sep-18 16:30N 39°48' W 075°25'0 0.4
2017-Sep-18 16:00N 39°48' W 075°25'0 0.6
2017-Sep-18 15:30N 39°48' W 075°25'0 0.7
2017-Sep-18 15:00N 39°48' W 075°25'2 4.8
2017-Sep-18 14:30N 39°50' W 075°23'0 0.0
2017-Sep-18 14:00N 39°50' W 075°23'2 3.2
2017-Sep-18 13:30N 39°48' W 075°24'2 3.2
2017-Sep-18 13:00N 39°50' W 075°23'0 0.0
2017-Sep-18 12:31N 39°50' W 075°23'0 0.0
2017-Sep-18 12:00N 39°50' W 075°23'0 0.0
2017-Sep-18 11:31N 39°50' W 075°23'0 0.0
2017-Sep-18 11:00N 39°50' W 075°23'3 5.3
2017-Sep-18 10:30N 39°48' W 075°26'3 5.2
2017-Sep-18 10:01N 39°50' W 075°23'0 0.2
2017-Sep-18 09:30N 39°50' W 075°23'1 2.4
2017-Sep-18 09:01N 39°49' W 075°24'1 2.4
2017-Sep-18 08:30N 39°50' W 075°23'0 0.0
2017-Sep-18 08:01N 39°50' W 075°23'0 0.0
2017-Sep-18 07:30N 39°50' W 075°23'0 0.0
2017-Sep-18 07:01N 39°50' W 075°23'0 0.0
2017-Sep-18 06:30N 39°50' W 075°23'1 2.1
2017-Sep-18 06:01N 39°49' W 075°24'1 2.1
2017-Sep-18 05:31N 39°50' W 075°23'0 0.0
2017-Sep-18 05:00N 39°50' W 075°23'0 0.0
2017-Sep-18 04:30N 39°50' W 075°23'0 0.0
2017-Sep-18 04:00N 39°50' W 075°23'0 0.0
2017-Sep-18 03:31N 39°50' W 075°23'0 0.0
2017-Sep-18 03:00N 39°50' W 075°23'0 0.0
2017-Sep-18 02:30N 39°50' W 075°23'2 4.7
2017-Sep-18 02:00N 39°48' W 075°25'0 0.0
2017-Sep-18 01:30N 39°48' W 075°25'0 1.0
2017-Sep-18 01:01N 39°48' W 075°26'3 4.8
2017-Sep-18 00:29N 39°50' W 075°23'0 0.0
2017-Sep-18 00:01N 39°50' W 075°23'0 0.0
2017-Sep-17 23:30N 39°50' W 075°23'0 0.0
2017-Sep-17 23:01N 39°50' W 075°23'1 2.0
2017-Sep-17 22:30N 39°49' W 075°24'1 1.1
2017-Sep-17 22:00N 39°49' W 075°23'0 1.0
2017-Sep-17 21:30N 39°50' W 075°23'0 0.0
2017-Sep-17 21:00N 39°50' W 075°23'0 0.0
2017-Sep-17 20:31N 39°50' W 075°23'0 0.1
2017-Sep-17 20:01N 39°50' W 075°23'0 0.1
2017-Sep-17 19:30N 39°50' W 075°23'0 0.1
2017-Sep-17 19:01N 39°50' W 075°23'0 0.1
2017-Sep-17 18:30N 39°50' W 075°23'3 5.1
2017-Sep-17 18:00N 39°48' W 075°26'3 5.1
2017-Sep-17 17:31N 39°50' W 075°23'0 0.1
2017-Sep-17 17:00N 39°50' W 075°23'0 0.0
2017-Sep-17 16:30N 39°50' W 075°23'0 0.0
2017-Sep-17 16:00N 39°50' W 075°23'0 0.0
2017-Sep-17 15:30N 39°50' W 075°23'0 0.1
2017-Sep-17 15:01N 39°50' W 075°23'0 0.0
2017-Sep-17 14:31N 39°50' W 075°23'0 0.0
2017-Sep-17 14:00N 39°50' W 075°23'0 0.0
2017-Sep-17 13:30N 39°50' W 075°23'0 0.0
2017-Sep-17 13:01N 39°50' W 075°23'0 0.0
2017-Sep-17 12:31N 39°50' W 075°23'0 0.0
2017-Sep-17 12:01N 39°50' W 075°23'0 0.8
2017-Sep-17 11:31N 39°49' W 075°23'0 0.8
2017-Sep-17 11:00N 39°50' W 075°23'3 5.1
2017-Sep-17 10:31N 39°48' W 075°26'2 4.8
2017-Sep-17 10:00N 39°49' W 075°23'0 0.3
2017-Sep-17 09:30N 39°50' W 075°23'2 3.9
2017-Sep-17 09:01N 39°48' W 075°25'2 3.9
2017-Sep-17 08:30N 39°50' W 075°23'0 0.0
2017-Sep-17 08:00N 39°50' W 075°23'0 0.0
2017-Sep-17 07:31N 39°50' W 075°23'0 0.0
2017-Sep-17 07:00N 39°50' W 075°23'0 0.0
2017-Sep-17 06:30N 39°50' W 075°23'0 0.0
2017-Sep-17 06:00N 39°50' W 075°23'0 0.0
2017-Sep-17 05:31N 39°50' W 075°23'0 0.0
2017-Sep-17 05:01N 39°50' W 075°23'0 0.0
2017-Sep-17 04:31N 39°50' W 075°23'0 0.0
2017-Sep-17 04:00N 39°50' W 075°23'0 0.0
2017-Sep-17 03:30N 39°50' W 075°23'0 0.0
2017-Sep-17 03:01N 39°50' W 075°23'0 0.0
2017-Sep-17 02:30N 39°50' W 075°23'0 0.0
2017-Sep-17 02:00N 39°50' W 075°23'0 0.0
2017-Sep-17 01:30N 39°50' W 075°23'0 0.0
2017-Sep-17 01:00N 39°50' W 075°23'0 0.0
2017-Sep-17 00:30N 39°50' W 075°23'0 0.0
2017-Sep-17 00:00N 39°50' W 075°23'0 0.0
2017-Sep-16 23:30N 39°50' W 075°23'1 3.0
2017-Sep-16 23:01N 39°48' W 075°24'1 2.1
2017-Sep-16 22:31N 39°48' W 075°25'2 4.9
2017-Sep-16 22:01N 39°50' W 075°23'0 0.0
2017-Sep-16 21:30N 39°50' W 075°23'0 0.0
2017-Sep-16 21:01N 39°50' W 075°23'0 0.0
2017-Sep-16 20:31N 39°50' W 075°23'0 0.0
2017-Sep-16 20:01N 39°50' W 075°23'1 2.5
2017-Sep-16 19:31N 39°49' W 075°24'0 0.9
2017-Sep-16 19:00N 39°49' W 075°24'1 1.7
2017-Sep-16 18:30N 39°50' W 075°23'2 4.9
2017-Sep-16 18:01N 39°48' W 075°25'2 3.9
2017-Sep-16 17:30N 39°47' W 075°27'4 8.6
2017-Sep-16 17:00N 39°50' W 075°23'0 0.0
2017-Sep-16 16:31N 39°50' W 075°23'0 0.0
2017-Sep-16 16:01N 39°50' W 075°23'4 8.6
2017-Sep-16 15:31N 39°47' W 075°27'4 8.6
2017-Sep-16 15:00N 39°50' W 075°23'0 0.0
2017-Sep-16 14:30N 39°50' W 075°23'0 0.0
2017-Sep-16 14:00N 39°50' W 075°23'0 0.0
2017-Sep-16 13:30N 39°50' W 075°23'0 0.0
2017-Sep-16 13:00N 39°50' W 075°23'0 0.0
2017-Sep-16 12:30N 39°50' W 075°23'0 0.0
2017-Sep-16 12:00N 39°50' W 075°23'0 0.0
2017-Sep-16 11:30N 39°50' W 075°23'0 0.7
2017-Sep-16 11:01N 39°49' W 075°23'1 1.7
2017-Sep-16 10:31N 39°49' W 075°24'1 2.2
2017-Sep-16 10:00N 39°49' W 075°23'0 0.3
2017-Sep-16 09:31N 39°50' W 075°23'2 3.6
2017-Sep-16 09:01N 39°48' W 075°25'2 3.6
2017-Sep-16 08:31N 39°50' W 075°23'0 0.0
2017-Sep-16 08:00N 39°50' W 075°23'0 0.0
2017-Sep-16 07:30N 39°50' W 075°23'0 0.0
2017-Sep-16 07:00N 39°50' W 075°23'0 0.0
2017-Sep-16 06:30N 39°50' W 075°23'0 0.0
2017-Sep-16 06:00N 39°50' W 075°23'0 0.0
2017-Sep-16 05:31N 39°50' W 075°23'0 0.0
2017-Sep-16 05:01N 39°50' W 075°23'0 0.0
2017-Sep-16 04:30N 39°50' W 075°23'0 0.0
2017-Sep-16 04:01N 39°50' W 075°23'2 4.9
2017-Sep-16 03:31N 39°48' W 075°25'0 0.1
2017-Sep-16 03:00N 39°48' W 075°25'2 4.9
2017-Sep-16 02:30N 39°50' W 075°23'3 6.5
2017-Sep-16 02:00N 39°48' W 075°26'1 1.5
2017-Sep-16 01:31N 39°48' W 075°26'2 3.5
2017-Sep-16 01:00N 39°47' W 075°27'4 8.6
2017-Sep-16 00:30N 39°50' W 075°23'0 0.0
2017-Sep-16 00:01N 39°50' W 075°23'0 0.0
2017-Sep-15 23:31N 39°50' W 075°23'3 6.4
2017-Sep-15 23:01N 39°48' W 075°26'1 1.8
2017-Sep-15 22:30N 39°47' W 075°27'4 8.2
2017-Sep-15 22:00N 39°50' W 075°23'0 0.0
2017-Sep-15 21:30N 39°50' W 075°23'0 0.0
2017-Sep-15 21:01N 39°50' W 075°23'0 0.0
2017-Sep-15 20:30N 39°50' W 075°23'0 0.0
2017-Sep-15 20:00N 39°50' W 075°23'0 0.0
2017-Sep-15 19:31N 39°50' W 075°23'4 8.5
2017-Sep-15 19:01N 39°47' W 075°27'4 8.5
2017-Sep-15 18:30N 39°50' W 075°23'4 8.6
2017-Sep-15 18:01N 39°47' W 075°27'4 8.5
2017-Sep-15 17:30N 39°50' W 075°23'3 5.0
2017-Sep-15 17:00N 39°48' W 075°25'2 3.2
2017-Sep-15 16:31N 39°47' W 075°27'4 8.0
2017-Sep-15 16:00N 39°50' W 075°23'0 0.0
2017-Sep-15 15:30N 39°50' W 075°23'3 5.1
2017-Sep-15 15:00N 39°48' W 075°25'0 0.1
2017-Sep-15 14:31N 39°48' W 075°25'3 5.0
2017-Sep-15 14:01N 39°50' W 075°23'4 8.5
2017-Sep-15 13:31N 39°47' W 075°27'0 0.0
2017-Sep-15 13:00N 39°47' W 075°27'4 8.6
2017-Sep-15 12:31N 39°50' W 075°23'3 6.9
2017-Sep-15 12:01N 39°47' W 075°26'0 0.5
2017-Sep-15 11:31N 39°48' W 075°26'3 6.5
2017-Sep-15 11:01N 39°50' W 075°23'2 3.5
2017-Sep-15 10:30N 39°48' W 075°25'2 3.4
2017-Sep-15 10:01N 39°49' W 075°23'0 0.3
2017-Sep-15 09:30N 39°50' W 075°23'0 0.0
2017-Sep-15 09:00N 39°50' W 075°23'0 0.0
2017-Sep-15 08:30N 39°50' W 075°23'0 0.0
2017-Sep-15 08:01N 39°50' W 075°23'0 0.0
2017-Sep-15 07:31N 39°50' W 075°23'0 0.0
2017-Sep-15 07:00N 39°50' W 075°23'0 0.0
2017-Sep-15 06:31N 39°50' W 075°23'0 0.0
2017-Sep-15 06:01N 39°50' W 075°23'0 0.0
2017-Sep-15 05:31N 39°50' W 075°23'0 0.0
2017-Sep-15 05:00N 39°50' W 075°23'0 0.0
2017-Sep-15 04:30N 39°50' W 075°23'0 0.0
2017-Sep-15 04:00N 39°50' W 075°23'0 0.0
2017-Sep-15 03:30N 39°50' W 075°23'0 0.0
2017-Sep-15 03:01N 39°50' W 075°23'0 0.0
2017-Sep-15 02:30N 39°50' W 075°23'0 0.0
2017-Sep-15 02:01N 39°50' W 075°23'0 0.0
2017-Sep-15 01:31N 39°50' W 075°23'0 0.0
2017-Sep-15 01:00N 39°50' W 075°23'0 0.0
2017-Sep-15 00:31N 39°50' W 075°23'0 0.0
2017-Sep-15 00:00N 39°50' W 075°23'0 0.0
2017-Sep-14 23:31N 39°50' W 075°23'0 0.0
2017-Sep-14 23:01N 39°50' W 075°23'4 8.3
2017-Sep-14 22:31N 39°47' W 075°27'4 8.3
2017-Sep-14 22:00N 39°50' W 075°23'0 0.0
2017-Sep-14 21:31N 39°50' W 075°23'0 0.0
2017-Sep-14 21:01N 39°50' W 075°23'2 4.9
2017-Sep-14 20:31N 39°48' W 075°25'2 4.9
2017-Sep-14 20:01N 39°50' W 075°23'0 0.1
2017-Sep-14 19:31N 39°50' W 075°23'0 0.7
2017-Sep-14 19:01N 39°49' W 075°23'3 6.4
2017-Sep-14 18:31N 39°47' W 075°26'1 2.9
2017-Sep-14 18:01N 39°48' W 075°25'0 0.0
2017-Sep-14 17:30N 39°48' W 075°25'2 4.5
2017-Sep-14 17:01N 39°47' W 075°27'0 0.4
2017-Sep-14 16:31N 39°47' W 075°28'3 6.5
2017-Sep-14 16:01N 39°49' W 075°24'1 2.0
2017-Sep-14 15:30N 39°50' W 075°23'1 2.8
2017-Sep-14 15:01N 39°49' W 075°24'2 3.7
2017-Sep-14 14:30N 39°48' W 075°26'3 5.9
2017-Sep-14 14:01N 39°49' W 075°23'3 5.4
2017-Sep-14 13:31N 39°48' W 075°26'2 3.4
2017-Sep-14 13:00N 39°49' W 075°24'3 5.8
2017-Sep-14 12:31N 39°47' W 075°27'0 0.1
2017-Sep-14 12:01N 39°47' W 075°27'0 0.2
2017-Sep-14 11:31N 39°47' W 075°27'4 8.3
2017-Sep-14 11:00N 39°50' W 075°23'2 4.7
2017-Sep-14 10:31N 39°48' W 075°25'2 4.8
2017-Sep-14 10:01N 39°50' W 075°23'0 0.0
2017-Sep-14 09:31N 39°50' W 075°23'2 4.8
2017-Sep-14 09:00N 39°48' W 075°25'0 0.4
2017-Sep-14 08:30N 39°48' W 075°25'0 0.7
2017-Sep-14 08:01N 39°48' W 075°25'2 4.8
2017-Sep-14 07:31N 39°50' W 075°23'0 0.0
2017-Sep-14 07:01N 39°50' W 075°23'1 1.9
2017-Sep-14 06:31N 39°49' W 075°24'2 4.8
2017-Sep-14 06:00N 39°48' W 075°26'3 6.6
2017-Sep-14 05:30N 39°50' W 075°23'0 0.0
2017-Sep-14 05:01N 39°50' W 075°23'3 5.3
2017-Sep-14 04:31N 39°48' W 075°26'2 3.3
2017-Sep-14 04:01N 39°47' W 075°27'4 8.5
2017-Sep-14 03:30N 39°50' W 075°23'3 5.2
2017-Sep-14 03:00N 39°48' W 075°25'0 0.7
2017-Sep-14 02:31N 39°48' W 075°25'2 4.5
2017-Sep-14 02:00N 39°50' W 075°23'1 1.7
2017-Sep-14 01:31N 39°49' W 075°24'3 6.8
2017-Sep-14 01:01N 39°47' W 075°27'2 4.4
2017-Sep-14 00:30N 39°48' W 075°25'2 3.9
2017-Sep-14 00:01N 39°50' W 075°23'0 0.0
2017-Sep-13 23:30N 39°50' W 075°23'0 0.2
2017-Sep-13 23:01N 39°50' W 075°23'3 5.6
2017-Sep-13 22:31N 39°48' W 075°26'3 5.6
2017-Sep-13 22:00N 39°50' W 075°23'0 0.1
2017-Sep-13 21:30N 39°50' W 075°23'0 0.0
2017-Sep-13 21:01N 39°50' W 075°23'3 5.8
2017-Sep-13 20:31N 39°48' W 075°26'1 2.6
2017-Sep-13 20:00N 39°47' W 075°27'4 8.3
2017-Sep-13 19:31N 39°50' W 075°23'0 0.0
2017-Sep-13 19:00N 39°50' W 075°23'3 6.5
2017-Sep-13 18:31N 39°48' W 075°26'1 1.5
2017-Sep-13 18:00N 39°48' W 075°25'1 1.5
2017-Sep-13 17:31N 39°48' W 075°25'2 3.7
2017-Sep-13 17:00N 39°50' W 075°23'0 0.0
2017-Sep-13 16:30N 39°50' W 075°23'0 0.0
2017-Sep-13 16:00N 39°50' W 075°23'0 0.0
2017-Sep-13 15:30N 39°50' W 075°23'2 5.0
2017-Sep-13 15:00N 39°48' W 075°25'1 1.2
2017-Sep-13 14:31N 39°48' W 075°25'1 1.3
2017-Sep-13 14:00N 39°49' W 075°24'1 2.5
2017-Sep-13 13:30N 39°50' W 075°23'0 0.0
2017-Sep-13 13:00N 39°50' W 075°23'2 4.1
2017-Sep-13 12:30N 39°48' W 075°25'2 4.1
2017-Sep-13 12:01N 39°50' W 075°23'4 7.8
2017-Sep-13 11:30N 39°47' W 075°27'4 7.8
2017-Sep-13 11:01N 39°50' W 075°23'3 5.4
2017-Sep-13 10:31N 39°48' W 075°26'3 5.4
2017-Sep-13 10:01N 39°50' W 075°23'0 0.1
2017-Sep-13 09:30N 39°50' W 075°23'0 0.0
2017-Sep-13 09:01N 39°50' W 075°23'0 0.0
2017-Sep-13 08:31N 39°50' W 075°23'0 0.0
2017-Sep-13 08:00N 39°50' W 075°23'0 0.0
2017-Sep-13 07:31N 39°50' W 075°23'0 0.0
2017-Sep-13 07:00N 39°50' W 075°23'0 0.0
2017-Sep-13 06:31N 39°50' W 075°23'3 5.0
2017-Sep-13 06:00N 39°48' W 075°25'0 0.8
2017-Sep-13 05:31N 39°48' W 075°25'2 4.2
2017-Sep-13 05:00N 39°50' W 075°23'0 0.0
2017-Sep-13 04:30N 39°50' W 075°23'0 0.0
2017-Sep-13 04:00N 39°50' W 075°23'0 0.0
2017-Sep-13 03:30N 39°50' W 075°23'0 0.0
2017-Sep-13 03:00N 39°50' W 075°23'0 0.0
2017-Sep-13 02:31N 39°50' W 075°23'2 3.2
2017-Sep-13 02:00N 39°49' W 075°25'2 3.2
2017-Sep-13 01:30N 39°50' W 075°23'0 0.0
2017-Sep-13 01:01N 39°50' W 075°23'0 0.0
2017-Sep-13 00:31N 39°50' W 075°23'0 0.0
2017-Sep-13 00:00N 39°50' W 075°23'0 0.0
2017-Sep-12 23:31N 39°50' W 075°23'0 0.1
2017-Sep-12 23:01N 39°50' W 075°23'4 8.3
2017-Sep-12 22:31N 39°47' W 075°27'4 8.3
2017-Sep-12 22:00N 39°50' W 075°23'0 0.0
2017-Sep-12 21:30N 39°50' W 075°23'0 0.0
2017-Sep-12 21:00N 39°50' W 075°23'0 0.0
2017-Sep-12 20:30N 39°50' W 075°23'0 0.0
2017-Sep-12 20:00N 39°50' W 075°23'3 7.0
2017-Sep-12 19:31N 39°48' W 075°27'1 2.2
2017-Sep-12 19:01N 39°48' W 075°25'0 0.2
2017-Sep-12 18:30N 39°48' W 075°25'2 3.1
2017-Sep-12 18:01N 39°47' W 075°27'2 3.3
2017-Sep-12 17:31N 39°48' W 075°25'0 0.6
2017-Sep-12 17:00N 39°48' W 075°25'2 3.4
2017-Sep-12 16:31N 39°49' W 075°23'0 0.9
2017-Sep-12 16:00N 39°50' W 075°23'0 0.0
2017-Sep-12 15:30N 39°50' W 075°23'0 0.0
2017-Sep-12 15:00N 39°50' W 075°23'3 5.2
2017-Sep-12 14:30N 39°48' W 075°25'3 5.2
2017-Sep-12 14:01N 39°50' W 075°23'0 0.0
2017-Sep-12 13:30N 39°50' W 075°23'0 0.0
2017-Sep-12 13:00N 39°50' W 075°23'0 0.0
2017-Sep-12 12:30N 39°50' W 075°23'0 0.0
2017-Sep-12 09:16N 39°50' W 075°23'0 0.0
2017-Sep-12 09:00N 39°50' W 075°23'0 0.0
2017-Sep-12 08:30N 39°50' W 075°23'0 0.0
2017-Sep-12 08:00N 39°50' W 075°23'0 0.0
2017-Sep-12 07:30N 39°50' W 075°23'0 0.0
2017-Sep-12 07:00N 39°50' W 075°23'0 0.0
2017-Sep-12 06:30N 39°50' W 075°23'0 0.0
2017-Sep-12 06:00N 39°50' W 075°23'0 0.0
2017-Sep-12 05:30N 39°50' W 075°23'0 0.0
2017-Sep-12 05:01N 39°50' W 075°23'0 0.0
2017-Sep-12 04:31N 39°50' W 075°23'0 0.0
2017-Sep-12 04:00N 39°50' W 075°23'0 0.0
2017-Sep-12 03:30N 39°50' W 075°23'0 0.0
2017-Sep-12 03:00N 39°50' W 075°23'0 0.0
2017-Sep-12 02:30N 39°50' W 075°23'0 0.0
2017-Sep-12 02:01N 39°50' W 075°23'  

Dump ship's entire track history